Hurlburt Field, Florida
Current Conditions -  °F | °C
As of 3:58 AM on Saturday 29 Nov 2014 (Local Time) from KHRT Reporting Station
Clear Clear  
Wind Chill: 36°   Ceiling: Unl
Heat Index: 40°   Visibility: 10mi
Dew Point: 34°   Wind: 5mph
Humidity: 81%   Direction: 30°NNE
Pressure: 30.25"   Gusts: NA
Location:  30.43°N, 86.69°W
Report Text: KHRT 290958Z AUTO 03004KT 10SM CLR 04/01 A3025 RMK AO2 SLP246 T00430013 $
Loading
Personal Weather Stations






























Interactive Weather Map New forecast layout! Learn more

10-Day Weather Forecast

Advertisements
Track Severe Weather on mobile